createdAt,value
2018-09-18T00:00:41.254Z,3.43
2018-09-18T00:03:10.759Z,3.40
2018-09-18T00:05:40.327Z,2.80
2018-09-18T00:08:09.718Z,2.67
2018-09-18T00:10:39.036Z,2.80
2018-09-18T00:13:08.207Z,2.80
2018-09-18T00:15:37.575Z,3.07
2018-09-18T00:18:06.961Z,2.77
2018-09-18T00:20:36.266Z,3.10
2018-09-18T00:23:05.423Z,3.07
2018-09-18T00:25:35.733Z,2.97
2018-09-18T00:28:05.207Z,3.13
2018-09-18T00:30:34.361Z,2.87
2018-09-18T00:33:03.506Z,2.97
2018-09-18T00:35:32.904Z,3.13
2018-09-18T00:38:02.253Z,3.40
2018-09-18T00:40:31.369Z,3.30
2018-09-18T00:43:01.042Z,3.70
2018-09-18T00:45:31.325Z,3.60
2018-09-18T00:48:00.549Z,3.83
2018-09-18T00:50:30.766Z,3.03
2018-09-18T00:52:59.936Z,2.80
2018-09-18T00:55:29.293Z,3.00
2018-09-18T00:57:58.775Z,3.83
2018-09-18T01:00:28.186Z,3.70
2018-09-18T01:02:57.409Z,3.67
2018-09-18T01:05:26.910Z,3.53
2018-09-18T01:07:56.259Z,4.00
2018-09-18T01:10:25.624Z,3.60
2018-09-18T01:12:55.027Z,3.30
2018-09-18T01:15:24.516Z,3.60
2018-09-18T01:17:53.564Z,3.50
2018-09-18T01:20:22.735Z,4.03
2018-09-18T01:22:52.040Z,3.93
2018-09-18T01:25:21.267Z,4.23
2018-09-18T01:27:50.600Z,3.53
2018-09-18T01:30:19.902Z,3.30
2018-09-18T01:32:49.286Z,2.97
2018-09-18T01:35:18.557Z,3.60
2018-09-18T01:37:47.766Z,3.47
2018-09-18T01:40:17.329Z,3.37
2018-09-18T01:42:46.770Z,3.80
2018-09-18T01:45:16.152Z,3.73
2018-09-18T01:47:45.499Z,3.47
2018-09-18T01:50:14.979Z,3.87
2018-09-18T01:52:44.411Z,3.53
2018-09-18T01:55:13.823Z,3.80
2018-09-18T01:57:43.153Z,3.47
2018-09-18T02:00:12.569Z,3.40
2018-09-18T02:02:41.822Z,3.37
2018-09-18T02:05:11.143Z,3.80
2018-09-18T02:07:40.600Z,3.87
2018-09-18T02:10:10.419Z,4.30
2018-09-18T02:12:39.931Z,3.70
2018-09-18T02:15:09.493Z,3.77
2018-09-18T02:17:39.122Z,3.90
2018-09-18T02:20:08.458Z,4.03
2018-09-18T02:22:37.850Z,4.13
2018-09-18T02:25:06.957Z,3.37
2018-09-18T02:27:35.911Z,3.90
2018-09-18T02:30:05.224Z,3.77
2018-09-18T02:32:34.101Z,3.77
2018-09-18T02:35:03.254Z,4.90
2018-09-18T02:37:32.793Z,3.97
2018-09-18T02:40:01.934Z,3.30
2018-09-18T02:42:31.749Z,3.90
2018-09-18T02:45:00.956Z,3.50
2018-09-18T02:47:30.461Z,3.87
2018-09-18T02:50:00.022Z,3.27
2018-09-18T02:52:29.475Z,4.00
2018-09-18T02:54:58.921Z,3.60
2018-09-18T02:57:28.424Z,3.93
2018-09-18T02:59:57.918Z,3.93
2018-09-18T03:02:27.215Z,3.53
2018-09-18T03:04:56.635Z,4.10
2018-09-18T03:07:25.810Z,3.20
2018-09-18T03:09:55.384Z,3.53
2018-09-18T03:12:24.760Z,3.43
2018-09-18T03:14:54.040Z,3.73
2018-09-18T03:17:23.206Z,3.93
2018-09-18T03:19:52.319Z,4.10
2018-09-18T03:22:21.623Z,4.27
2018-09-18T03:24:51.097Z,3.70
2018-09-18T03:27:20.455Z,4.27
2018-09-18T03:29:49.964Z,3.70
2018-09-18T03:32:19.563Z,3.97
2018-09-18T03:34:49.006Z,3.67
2018-09-18T03:37:18.499Z,4.00
2018-09-18T03:39:48.065Z,3.97
2018-09-18T03:42:17.335Z,3.87
2018-09-18T03:44:46.717Z,4.63
2018-09-18T03:47:15.946Z,4.17
2018-09-18T03:49:45.102Z,3.50
2018-09-18T03:52:14.553Z,4.27
2018-09-18T03:54:43.818Z,4.00
2018-09-18T03:57:12.807Z,4.13
2018-09-18T03:59:42.412Z,4.33
2018-09-18T04:02:11.654Z,4.27
2018-09-18T04:04:41.047Z,4.30
2018-09-18T04:07:10.278Z,3.17
2018-09-18T04:09:39.793Z,3.50
2018-09-18T04:12:08.786Z,3.20
2018-09-18T04:14:37.695Z,3.70
2018-09-18T04:17:07.440Z,2.83
2018-09-18T04:19:38.810Z,3.53
2018-09-18T04:22:07.831Z,3.63
2018-09-18T04:24:36.709Z,3.73
2018-09-18T04:27:05.699Z,3.70
2018-09-18T04:29:34.837Z,3.50
2018-09-18T04:32:04.001Z,3.90
2018-09-18T04:34:33.401Z,4.10
2018-09-18T04:37:02.980Z,3.90
2018-09-18T04:39:32.307Z,3.87
2018-09-18T04:42:01.386Z,4.30
2018-09-18T04:44:30.808Z,4.00
2018-09-18T04:47:00.168Z,4.00
2018-09-18T04:49:29.460Z,4.43
2018-09-18T04:51:58.668Z,5.17
2018-09-18T04:54:28.203Z,4.67
2018-09-18T04:56:57.369Z,4.27
2018-09-18T04:59:26.795Z,4.90
2018-09-18T05:01:56.193Z,5.10
2018-09-18T05:04:25.621Z,4.30
2018-09-18T05:06:54.759Z,4.03
2018-09-18T05:09:24.056Z,3.87
2018-09-18T05:11:53.833Z,4.00
2018-09-18T05:14:23.060Z,3.27
2018-09-18T05:16:52.454Z,3.90
2018-09-18T05:19:21.888Z,3.90
2018-09-18T05:21:51.418Z,3.67
2018-09-18T05:24:20.799Z,3.23
2018-09-18T05:26:50.021Z,4.10
2018-09-18T05:29:19.343Z,4.10
2018-09-18T05:31:48.480Z,3.90
2018-09-18T05:34:17.833Z,4.03
2018-09-18T05:36:47.221Z,3.63
2018-09-18T05:39:16.309Z,4.00
2018-09-18T05:41:46.130Z,3.40
2018-09-18T05:44:15.437Z,3.93
2018-09-18T05:46:44.924Z,3.83
2018-09-18T05:49:14.563Z,3.70
2018-09-18T05:51:44.090Z,3.37
2018-09-18T05:54:13.674Z,3.63
2018-09-18T05:56:43.360Z,3.90
2018-09-18T05:59:12.563Z,3.57
2018-09-18T06:01:42.070Z,4.10
2018-09-18T06:04:11.493Z,4.47
2018-09-18T06:06:40.892Z,3.33
2018-09-18T06:09:11.653Z,3.63
2018-09-18T06:11:41.012Z,3.50
2018-09-18T06:14:10.635Z,3.90
2018-09-18T06:16:39.926Z,4.17
2018-09-18T06:19:09.255Z,4.00
2018-09-18T06:21:38.743Z,3.60
2018-09-18T06:24:08.315Z,3.53
2018-09-18T06:26:37.719Z,3.97
2018-09-18T06:29:07.046Z,3.40
2018-09-18T06:31:35.973Z,4.07
2018-09-18T06:34:05.306Z,3.77
2018-09-18T06:36:34.377Z,4.37
2018-09-18T06:39:04.411Z,4.03
2018-09-18T06:41:33.845Z,3.60
2018-09-18T06:44:03.299Z,4.10
2018-09-18T06:46:32.657Z,4.33
2018-09-18T06:49:01.773Z,3.73
2018-09-18T06:51:31.130Z,4.30
2018-09-18T06:54:00.341Z,4.37
2018-09-18T06:56:29.940Z,4.30
2018-09-18T06:58:59.229Z,3.70
2018-09-18T07:01:28.845Z,3.87
2018-09-18T07:03:57.827Z,4.03
2018-09-18T07:06:26.908Z,4.87
2018-09-18T07:08:55.878Z,4.33
2018-09-18T07:11:24.750Z,4.60
2018-09-18T07:13:54.227Z,4.07
2018-09-18T07:16:23.404Z,4.30
2018-09-18T07:18:52.571Z,4.33
2018-09-18T07:21:21.806Z,4.27
2018-09-18T07:23:51.385Z,4.37
2018-09-18T07:26:20.876Z,4.30
2018-09-18T07:28:49.991Z,4.20
2018-09-18T07:31:19.275Z,4.20
2018-09-18T07:33:48.529Z,5.03
2018-09-18T07:36:18.072Z,4.90
2018-09-18T07:38:47.547Z,5.00
2018-09-18T07:41:16.759Z,4.67
2018-09-18T07:43:46.054Z,4.30
2018-09-18T07:46:15.585Z,4.93
2018-09-18T07:48:46.854Z,4.70
2018-09-18T07:51:16.095Z,4.77
2018-09-18T07:53:45.536Z,4.60
2018-09-18T07:56:15.111Z,4.70
2018-09-18T07:58:44.639Z,4.37
2018-09-18T08:01:14.152Z,4.90
2018-09-18T08:03:43.446Z,4.57
2018-09-18T08:06:12.534Z,4.17
2018-09-18T08:08:42.021Z,4.63
2018-09-18T08:11:11.581Z,5.00
2018-09-18T08:13:40.814Z,4.83
2018-09-18T08:16:10.586Z,4.93
2018-09-18T08:18:40.427Z,5.57
2018-09-18T08:21:09.736Z,4.77
2018-09-18T08:23:39.275Z,4.77
2018-09-18T08:26:08.686Z,5.47
2018-09-18T08:28:38.198Z,4.30
2018-09-18T08:31:08.086Z,4.50
2018-09-18T08:33:37.335Z,4.20
2018-09-18T08:36:07.136Z,4.37
2018-09-18T08:38:36.699Z,5.10
2018-09-18T08:41:05.678Z,4.70
2018-09-18T08:43:35.287Z,5.00
2018-09-18T08:46:05.024Z,4.60
2018-09-18T08:48:33.905Z,5.33
2018-09-18T08:51:03.821Z,4.50
2018-09-18T08:53:33.727Z,4.97
2018-09-18T08:56:03.195Z,4.93
2018-09-18T08:58:32.684Z,4.50
2018-09-18T09:01:01.689Z,4.63
2018-09-18T09:03:31.892Z,4.30
2018-09-18T09:06:01.439Z,4.47
2018-09-18T09:08:30.699Z,5.37
2018-09-18T09:11:00.151Z,3.83
2018-09-18T09:13:29.537Z,3.73
2018-09-18T09:15:58.916Z,3.73
2018-09-18T09:18:28.394Z,3.93
2018-09-18T09:20:57.834Z,3.90
2018-09-18T09:23:27.164Z,3.70
2018-09-18T09:25:56.841Z,3.63
2018-09-18T09:28:26.253Z,3.93
2018-09-18T09:30:58.157Z,4.40
2018-09-18T09:33:27.591Z,3.57
2018-09-18T09:35:56.867Z,3.50
2018-09-18T09:38:26.056Z,4.00
2018-09-18T09:40:54.954Z,3.60
2018-09-18T09:43:24.431Z,4.40
2018-09-18T09:45:53.865Z,3.07
2018-09-18T09:48:23.285Z,3.47
2018-09-18T09:50:52.868Z,2.67
2018-09-18T09:53:23.206Z,3.13
2018-09-18T09:55:52.504Z,2.80
2018-09-18T09:58:21.896Z,3.00
2018-09-18T10:00:56.618Z,3.27
2018-09-18T10:03:27.059Z,3.00
2018-09-18T10:05:57.963Z,2.60
2018-09-18T10:08:27.548Z,3.43
2018-09-18T10:10:56.940Z,2.97
2018-09-18T10:13:25.993Z,2.80
2018-09-18T10:15:55.945Z,3.10
2018-09-18T10:18:25.109Z,2.97
2018-09-18T10:20:54.568Z,3.10
2018-09-18T10:23:24.042Z,3.23
2018-09-18T10:25:53.575Z,3.40
2018-09-18T10:28:23.077Z,3.07
2018-09-18T10:30:52.292Z,3.13
2018-09-18T10:33:21.880Z,3.40
2018-09-18T10:35:51.457Z,3.33
2018-09-18T10:38:20.729Z,3.30
2018-09-18T10:40:50.438Z,3.40
2018-09-18T10:43:20.088Z,2.90
2018-09-18T10:45:49.514Z,2.97
2018-09-18T10:48:19.151Z,3.47
2018-09-18T10:50:48.532Z,3.10
2018-09-18T10:53:17.767Z,3.47
2018-09-18T10:55:47.187Z,3.10
2018-09-18T10:58:16.501Z,3.03
2018-09-18T11:00:45.658Z,2.90
2018-09-18T11:03:14.590Z,2.87
2018-09-18T11:05:44.044Z,2.80
2018-09-18T11:08:13.566Z,2.80
2018-09-18T11:10:43.379Z,3.30
2018-09-18T11:13:12.962Z,2.97
2018-09-18T11:15:42.400Z,2.93
2018-09-18T11:18:11.971Z,3.57
2018-09-18T11:20:41.429Z,2.93
2018-09-18T11:23:10.945Z,3.57
2018-09-18T11:25:40.599Z,2.77
2018-09-18T11:28:10.031Z,2.50
2018-09-18T11:30:39.417Z,3.00
2018-09-18T11:33:08.737Z,2.93
2018-09-18T11:35:38.319Z,2.77
2018-09-18T11:38:07.733Z,2.97
2018-09-18T11:40:37.085Z,2.93
2018-09-18T11:43:06.543Z,2.97
2018-09-18T11:45:35.734Z,3.40
2018-09-18T11:48:07.372Z,3.00
2018-09-18T11:50:36.841Z,2.93
2018-09-18T11:53:06.010Z,2.70
2018-09-18T11:55:34.968Z,3.17
2018-09-18T11:58:04.145Z,2.87
2018-09-18T12:00:33.504Z,2.00
2018-09-18T12:03:02.934Z,2.30
2018-09-18T12:05:32.433Z,2.10
2018-09-18T12:08:01.734Z,2.62
2018-09-18T12:13:05.706Z,2.23
2018-09-18T12:15:35.937Z,2.30
2018-09-18T12:18:04.936Z,2.10
2018-09-18T12:20:34.046Z,2.13
2018-09-18T12:23:03.456Z,2.07
2018-09-18T12:25:32.869Z,1.93
2018-09-18T12:28:02.240Z,2.27
2018-09-18T12:30:31.918Z,2.30
2018-09-18T12:33:01.533Z,2.08
2018-09-18T12:35:31.455Z,2.53
2018-09-18T12:38:01.099Z,2.20
2018-09-18T12:40:30.461Z,2.23
2018-09-18T12:42:59.895Z,2.03
2018-09-18T12:45:29.489Z,2.00
2018-09-18T12:47:59.384Z,2.20
2018-09-18T12:50:28.621Z,2.20
2018-09-18T12:52:57.759Z,1.93
2018-09-18T12:55:27.653Z,2.17
2018-09-18T12:57:57.099Z,2.40
2018-09-18T13:00:26.677Z,2.20
2018-09-18T13:02:56.038Z,2.20
2018-09-18T13:05:25.782Z,2.00
2018-09-18T13:07:55.157Z,2.20
2018-09-18T13:10:24.523Z,1.77
2018-09-18T13:12:53.814Z,2.00
2018-09-18T13:15:23.347Z,2.30
2018-09-18T13:17:52.774Z,1.83
2018-09-18T13:20:22.731Z,2.10
2018-09-18T13:22:52.270Z,2.12
2018-09-18T13:25:21.685Z,2.08
2018-09-18T13:27:51.041Z,1.92
2018-09-18T13:30:20.416Z,1.80
2018-09-18T13:32:49.783Z,2.25
2018-09-18T13:35:19.295Z,1.90
2018-09-18T13:37:48.786Z,1.98
2018-09-18T13:40:18.088Z,1.97
2018-09-18T13:42:47.771Z,1.80
2018-09-18T13:45:17.235Z,1.90
2018-09-18T13:47:46.698Z,1.80
2018-09-18T13:50:16.071Z,1.70
2018-09-18T13:52:45.237Z,1.73
2018-09-18T13:55:14.705Z,1.73
2018-09-18T13:57:43.965Z,1.83
2018-09-18T14:00:13.534Z,1.77
2018-09-18T14:02:42.970Z,1.60
2018-09-18T14:05:12.416Z,1.97
2018-09-18T14:07:41.642Z,1.80
2018-09-18T14:10:13.340Z,1.80
2018-09-18T14:12:42.513Z,1.63
2018-09-18T14:15:11.932Z,1.70
2018-09-18T14:17:41.270Z,1.70
2018-09-18T14:20:10.716Z,1.60
2018-09-18T14:22:40.022Z,1.93
2018-09-18T14:25:09.627Z,2.00
2018-09-18T14:27:39.011Z,1.80
2018-09-18T14:30:08.653Z,1.80
2018-09-18T14:32:37.906Z,1.90
2018-09-18T14:35:08.286Z,2.00
2018-09-18T14:37:37.626Z,1.80
2018-09-18T14:40:06.906Z,1.70
2018-09-18T14:42:36.549Z,1.77
2018-09-18T14:45:05.704Z,1.73
2018-09-18T14:47:34.865Z,1.47
2018-09-18T14:50:03.807Z,1.50
2018-09-18T14:52:33.216Z,1.40
2018-09-18T14:55:02.634Z,1.70
2018-09-18T14:57:32.111Z,1.93
2018-09-18T15:00:01.524Z,1.40
2018-09-18T15:02:30.636Z,1.70
2018-09-18T15:05:00.116Z,1.63
2018-09-18T15:07:29.579Z,1.63
2018-09-18T15:09:58.909Z,1.50
2018-09-18T15:12:28.242Z,1.40
2018-09-18T15:14:57.669Z,1.50
2018-09-18T15:17:27.319Z,1.27
2018-09-18T15:19:56.527Z,1.33
2018-09-18T15:22:26.107Z,1.40
2018-09-18T15:24:55.805Z,1.67
2018-09-18T15:27:25.222Z,2.10
2018-09-18T15:29:54.589Z,1.40
2018-09-18T15:32:24.007Z,1.23
2018-09-18T15:34:53.331Z,1.40
2018-09-18T15:37:22.700Z,1.40
2018-09-18T15:39:52.243Z,1.60
2018-09-18T15:42:21.619Z,1.37
2018-09-18T15:44:50.945Z,1.40
2018-09-18T15:47:20.367Z,1.27
2018-09-18T15:49:49.565Z,1.20
2018-09-18T15:52:18.992Z,1.47
2018-09-18T15:54:48.924Z,1.40
2018-09-18T15:57:18.224Z,1.30
2018-09-18T15:59:47.572Z,1.10
2018-09-18T16:02:16.932Z,1.07
2018-09-18T16:04:46.055Z,1.40
2018-09-18T16:07:15.400Z,1.30
2018-09-18T16:09:44.896Z,1.13
2018-09-18T16:12:14.258Z,1.17
2018-09-18T16:14:44.337Z,1.20
2018-09-18T16:17:13.931Z,1.17
2018-09-18T16:19:43.270Z,1.33
2018-09-18T16:22:12.704Z,1.20
2018-09-18T16:24:41.969Z,1.33
2018-09-18T16:27:11.572Z,1.40
2018-09-18T16:29:40.878Z,1.43
2018-09-18T16:32:10.331Z,1.30
2018-09-18T16:34:39.809Z,1.20
2018-09-18T16:37:09.146Z,1.37
2018-09-18T16:39:38.429Z,1.30
2018-09-18T16:42:07.384Z,1.23
2018-09-18T16:44:37.100Z,1.50
2018-09-18T16:47:06.262Z,1.40
2018-09-18T16:49:35.708Z,1.53
2018-09-18T16:52:04.878Z,2.17
2018-09-18T16:54:34.078Z,1.43
2018-09-18T16:57:07.709Z,1.77
2018-09-18T16:59:36.982Z,1.23
2018-09-18T17:02:06.475Z,1.37
2018-09-18T17:04:35.400Z,2.37
2018-09-18T17:07:04.732Z,1.70
2018-09-18T17:09:34.039Z,1.47
2018-09-18T17:12:03.367Z,1.60
2018-09-18T17:14:32.788Z,1.20
2018-09-18T17:17:02.250Z,1.60
2018-09-18T17:19:31.665Z,1.40
2018-09-18T17:22:01.020Z,1.43
2018-09-18T17:24:30.561Z,1.10
2018-09-18T17:26:59.935Z,1.27
2018-09-18T17:29:29.323Z,1.23
2018-09-18T17:31:58.493Z,1.27
2018-09-18T17:34:27.923Z,1.37
2018-09-18T17:36:57.252Z,1.43
2018-09-18T17:39:26.807Z,1.50
2018-09-18T17:41:56.283Z,1.50
2018-09-18T17:44:25.669Z,1.27
2018-09-18T17:46:55.319Z,1.30
2018-09-18T17:49:26.061Z,1.50
2018-09-18T17:51:55.334Z,1.20
2018-09-18T17:54:24.849Z,1.33
2018-09-18T17:56:54.176Z,1.47
2018-09-18T17:59:23.789Z,1.43
2018-09-18T18:01:53.275Z,1.40
2018-09-18T18:04:22.399Z,1.60
2018-09-18T18:06:51.863Z,1.53
2018-09-18T18:09:21.177Z,1.47
2018-09-18T18:11:50.586Z,1.30
2018-09-18T18:14:20.245Z,1.50
2018-09-18T18:16:49.787Z,1.60
2018-09-18T18:19:19.411Z,1.53
2018-09-18T18:21:48.599Z,1.87
2018-09-18T18:24:17.917Z,1.70
2018-09-18T18:26:47.418Z,1.40
2018-09-18T18:29:16.651Z,1.93
2018-09-18T18:31:46.030Z,1.70
2018-09-18T18:34:15.764Z,1.37
2018-09-18T18:36:44.978Z,2.27
2018-09-18T18:39:14.239Z,1.67
2018-09-18T18:41:44.032Z,1.97
2018-09-18T18:44:13.385Z,1.67
2018-09-18T18:46:42.822Z,1.90
2018-09-18T18:49:12.419Z,1.40
2018-09-18T18:51:41.854Z,1.63
2018-09-18T18:54:11.341Z,1.90
2018-09-18T18:56:40.835Z,1.87
2018-09-18T18:59:10.177Z,1.77
2018-09-18T19:01:39.818Z,1.60
2018-09-18T19:04:09.198Z,1.80
2018-09-18T19:06:38.932Z,1.60
2018-09-18T19:09:09.459Z,1.60
2018-09-18T19:11:38.776Z,1.93
2018-09-18T19:14:07.916Z,1.77
2018-09-18T19:16:37.381Z,1.70
2018-09-18T19:19:07.107Z,1.80
2018-09-18T19:21:36.900Z,1.73
2018-09-18T19:24:06.203Z,1.70
2018-09-18T19:26:35.510Z,1.80
2018-09-18T19:29:04.579Z,1.90
2018-09-18T19:31:34.133Z,1.80
2018-09-18T19:34:03.322Z,1.60
2018-09-18T19:36:32.645Z,1.80
2018-09-18T19:39:02.813Z,1.90
2018-09-18T19:41:32.388Z,1.90
2018-09-18T19:44:01.916Z,1.60
2018-09-18T19:46:31.714Z,1.80
2018-09-18T19:49:01.056Z,1.80
2018-09-18T19:51:30.681Z,1.83
2018-09-18T19:54:00.439Z,1.67
2018-09-18T19:56:30.079Z,1.40
2018-09-18T19:58:59.395Z,1.67
2018-09-18T20:01:28.970Z,1.90
2018-09-18T20:03:58.321Z,1.90
2018-09-18T20:06:27.922Z,2.00
2018-09-18T20:08:57.740Z,1.80
2018-09-18T20:11:27.360Z,2.00
2018-09-18T20:13:56.941Z,2.70
2018-09-18T20:16:26.349Z,1.70
2018-09-18T20:18:55.847Z,2.13
2018-09-18T20:21:24.983Z,2.20
2018-09-18T20:23:54.393Z,1.97
2018-09-18T20:26:24.016Z,2.23
2018-09-18T20:28:53.478Z,2.37
2018-09-18T20:31:23.373Z,1.90
2018-09-18T20:33:53.316Z,2.23
2018-09-18T20:36:22.925Z,2.07
2018-09-18T20:38:53.447Z,2.30
2018-09-18T20:41:23.368Z,1.80
2018-09-18T20:43:52.687Z,2.37
2018-09-18T20:46:22.385Z,2.03
2018-09-18T20:48:52.085Z,2.30
2018-09-18T20:51:21.474Z,2.00
2018-09-18T20:53:50.829Z,2.30
2018-09-18T20:56:20.197Z,2.17
2018-09-18T20:58:49.835Z,2.40
2018-09-18T21:01:19.109Z,1.90
2018-09-18T21:03:48.590Z,2.30
2018-09-18T21:06:17.987Z,2.30
2018-09-18T21:08:47.480Z,1.80
2018-09-18T21:11:16.926Z,2.00
2018-09-18T21:13:46.350Z,2.30
2018-09-18T21:16:15.747Z,1.73
2018-09-18T21:18:45.382Z,1.67
2018-09-18T21:21:14.824Z,1.70
2018-09-18T21:23:44.117Z,2.07
2018-09-18T21:26:18.050Z,2.30
2018-09-18T21:28:47.597Z,2.40
2018-09-18T21:31:17.085Z,2.37
2018-09-18T21:34:16.975Z,2.33
2018-09-18T21:36:46.417Z,2.57
2018-09-18T21:39:15.979Z,2.53
2018-09-18T21:41:45.342Z,2.63
2018-09-18T21:44:14.527Z,2.30
2018-09-18T21:46:43.489Z,2.43
2018-09-18T21:49:12.481Z,2.33
2018-09-18T21:51:41.566Z,2.67
2018-09-18T21:54:11.101Z,3.10
2018-09-18T21:56:41.503Z,2.40
2018-09-18T21:59:11.536Z,2.57
2018-09-18T22:01:41.816Z,2.67
2018-09-18T22:04:11.329Z,2.47
2018-09-18T22:06:41.533Z,2.20
2018-09-18T22:09:10.927Z,2.53
2018-09-18T22:11:40.276Z,2.30
2018-09-18T22:14:09.522Z,2.70
2018-09-18T22:16:38.956Z,2.60
2018-09-18T22:19:09.017Z,2.70
2018-09-18T22:21:38.700Z,2.40
2018-09-18T22:24:08.149Z,2.80
2018-09-18T22:26:38.266Z,2.47
2018-09-18T22:29:07.707Z,2.67
2018-09-18T22:31:37.350Z,2.07
2018-09-18T22:34:06.926Z,2.53
2018-09-18T22:36:36.222Z,2.83
2018-09-18T22:39:07.166Z,2.43
2018-09-18T22:41:36.698Z,2.70
2018-09-18T22:44:05.987Z,3.00
2018-09-18T22:46:35.516Z,2.07
2018-09-18T22:49:04.869Z,2.17
2018-09-18T22:51:34.103Z,2.70
2018-09-18T22:54:03.448Z,2.83
2018-09-18T22:56:33.023Z,2.67
2018-09-18T22:59:02.398Z,2.63
2018-09-18T23:01:31.744Z,2.33
2018-09-18T23:04:01.202Z,2.37
2018-09-18T23:06:30.695Z,2.60
2018-09-18T23:09:00.192Z,3.10
2018-09-18T23:11:29.472Z,2.80
2018-09-18T23:13:58.835Z,2.60
2018-09-18T23:16:28.185Z,2.73
2018-09-18T23:18:57.599Z,2.70
2018-09-18T23:21:27.023Z,2.80
2018-09-18T23:23:56.737Z,2.80
2018-09-18T23:26:26.164Z,2.70
2018-09-18T23:28:55.728Z,2.50
2018-09-18T23:31:25.335Z,2.67
2018-09-18T23:33:54.905Z,2.73
2018-09-18T23:36:24.346Z,2.97
2018-09-18T23:38:53.640Z,2.60
2018-09-18T23:41:23.319Z,3.53
2018-09-18T23:43:52.599Z,2.80
2018-09-18T23:46:21.862Z,3.00
2018-09-18T23:48:51.176Z,2.93
2018-09-18T23:51:20.541Z,3.30
2018-09-18T23:53:49.828Z,2.97
2018-09-18T23:56:19.392Z,2.50
2018-09-18T23:58:49.842Z,2.53
